createdAt,value
2024-03-06T00:00:21.024Z,6.51
2024-03-06T00:02:48.389Z,6.56
2024-03-06T00:05:15.772Z,6.47
2024-03-06T00:07:43.016Z,6.28
2024-03-06T00:10:10.502Z,6.41
2024-03-06T00:12:37.592Z,6.37
2024-03-06T00:15:05.187Z,6.42
2024-03-06T00:17:32.563Z,6.63
2024-03-06T00:19:59.788Z,6.40
2024-03-06T00:22:26.961Z,6.23
2024-03-06T00:24:54.124Z,6.33
2024-03-06T00:27:21.457Z,6.46
2024-03-06T00:29:48.831Z,6.54
2024-03-06T00:32:16.266Z,6.58
2024-03-06T00:34:43.702Z,6.68
2024-03-06T00:37:13.983Z,6.75
2024-03-06T00:39:44.445Z,6.60
2024-03-06T00:42:14.957Z,6.52
2024-03-06T00:44:42.566Z,6.33
2024-03-06T00:47:09.985Z,6.42
2024-03-06T00:49:42.934Z,6.58
2024-03-06T00:52:10.689Z,6.57
2024-03-06T00:54:37.757Z,6.52
2024-03-06T00:57:05.015Z,6.57
2024-03-06T00:59:32.050Z,6.56
2024-03-06T01:01:59.258Z,6.36
2024-03-06T01:04:26.411Z,6.48
2024-03-06T01:06:53.587Z,6.43
2024-03-06T01:09:20.718Z,6.56
2024-03-06T01:11:49.210Z,6.45
2024-03-06T01:14:17.820Z,6.25
2024-03-06T01:16:45.124Z,6.38
2024-03-06T01:19:12.250Z,6.31
2024-03-06T01:21:39.800Z,6.44
2024-03-06T01:24:06.934Z,6.50
2024-03-06T01:26:34.185Z,6.44
2024-03-06T01:29:01.672Z,6.44
2024-03-06T01:31:29.007Z,6.25
2024-03-06T01:33:56.105Z,6.38
2024-03-06T01:36:23.258Z,6.34
2024-03-06T01:38:50.403Z,6.48
2024-03-06T01:41:17.553Z,6.40
2024-03-06T01:43:45.448Z,6.51
2024-03-06T01:46:12.599Z,6.29
2024-03-06T01:48:40.601Z,6.18
2024-03-06T01:51:07.808Z,6.27
2024-03-06T01:53:36.328Z,6.50
2024-03-06T01:56:05.364Z,6.35
2024-03-06T01:58:35.378Z,6.33
2024-03-06T02:01:03.684Z,6.40
2024-03-06T02:03:32.942Z,6.38
2024-03-06T02:06:03.631Z,6.45
2024-03-06T02:08:30.816Z,6.39
2024-03-06T02:10:58.102Z,6.39
2024-03-06T02:13:25.379Z,6.52
2024-03-06T02:15:52.530Z,6.44
2024-03-06T02:18:19.614Z,6.25
2024-03-06T02:20:48.340Z,6.44
2024-03-06T02:23:16.026Z,6.42
2024-03-06T02:25:43.290Z,6.48
2024-03-06T02:28:10.467Z,6.44
2024-03-06T02:30:38.527Z,6.53
2024-03-06T02:33:08.045Z,6.52
2024-03-06T02:35:36.412Z,6.46
2024-03-06T02:38:08.872Z,6.44
2024-03-06T02:40:36.168Z,6.41
2024-03-06T02:43:03.791Z,6.43
2024-03-06T02:45:30.824Z,6.47
2024-03-06T02:47:57.947Z,6.55
2024-03-06T02:50:25.214Z,6.45
2024-03-06T02:52:54.636Z,6.38
2024-03-06T02:55:23.832Z,6.36
2024-03-06T02:57:50.995Z,6.34
2024-03-06T03:00:18.253Z,6.27
2024-03-06T03:02:45.304Z,6.32
2024-03-06T03:05:12.600Z,6.37
2024-03-06T03:07:39.941Z,6.29
2024-03-06T03:10:07.754Z,6.20
2024-03-06T03:12:35.218Z,6.19
2024-03-06T03:15:02.652Z,6.13
2024-03-06T03:17:29.789Z,5.91
2024-03-06T03:19:57.095Z,6.14
2024-03-06T03:22:24.451Z,6.12
2024-03-06T03:24:51.558Z,6.13
2024-03-06T03:27:19.247Z,6.20
2024-03-06T03:29:46.374Z,6.06
2024-03-06T03:32:13.555Z,6.03
2024-03-06T03:34:41.004Z,6.10
2024-03-06T03:37:08.142Z,6.04
2024-03-06T03:39:35.209Z,5.89
2024-03-06T03:42:02.512Z,6.02
2024-03-06T03:44:29.595Z,6.18
2024-03-06T03:46:56.702Z,6.19
2024-03-06T03:49:23.800Z,6.15
2024-03-06T03:51:50.961Z,6.05
2024-03-06T03:54:18.040Z,6.08
2024-03-06T03:56:45.225Z,6.05
2024-03-06T03:59:12.392Z,6.17
2024-03-06T04:01:39.556Z,6.19
2024-03-06T04:04:08.334Z,6.17
2024-03-06T04:06:35.588Z,6.19
2024-03-06T04:09:03.100Z,6.23
2024-03-06T04:11:31.083Z,6.15
2024-03-06T04:13:58.254Z,6.08
2024-03-06T04:16:25.395Z,6.13
2024-03-06T04:18:53.047Z,6.14
2024-03-06T04:21:20.200Z,6.24
2024-03-06T04:23:47.462Z,6.23
2024-03-06T04:26:14.864Z,6.22
2024-03-06T04:28:42.030Z,6.05
2024-03-06T04:31:09.290Z,6.02
2024-03-06T04:33:36.662Z,6.01
2024-03-06T04:36:07.012Z,5.96
2024-03-06T04:38:34.199Z,5.80
2024-03-06T04:41:01.319Z,5.79
2024-03-06T04:43:28.667Z,5.77
2024-03-06T04:45:55.794Z,5.74
2024-03-06T04:48:22.991Z,5.72
2024-03-06T04:50:50.495Z,5.78
2024-03-06T04:53:17.738Z,5.61
2024-03-06T04:55:45.017Z,5.69
2024-03-06T04:58:12.198Z,5.60
2024-03-06T05:00:39.436Z,5.59
2024-03-06T05:59:34.570Z,5.74
2024-03-06T06:02:01.858Z,5.55
2024-03-06T06:04:29.109Z,5.76
2024-03-06T06:06:56.183Z,5.64
2024-03-06T06:09:23.318Z,5.52
2024-03-06T06:11:51.968Z,5.49
2024-03-06T06:14:19.169Z,5.64
2024-03-06T06:16:46.282Z,5.69
2024-03-06T06:19:13.404Z,5.80
2024-03-06T06:21:40.490Z,5.60
2024-03-06T06:24:08.351Z,5.74
2024-03-06T06:26:35.456Z,5.89
2024-03-06T06:29:02.703Z,5.74
2024-03-06T06:31:30.014Z,5.85
2024-03-06T06:33:57.166Z,5.86
2024-03-06T06:36:24.414Z,5.90
2024-03-06T06:38:51.589Z,5.86
2024-03-06T06:41:19.104Z,5.95
2024-03-06T06:43:46.661Z,5.97
2024-03-06T06:46:13.972Z,5.82
2024-03-06T06:48:41.148Z,5.84
2024-03-06T06:51:08.688Z,5.93
2024-03-06T06:53:35.958Z,5.67
2024-03-06T06:56:03.373Z,5.67
2024-03-06T06:58:30.557Z,5.80
2024-03-06T07:00:57.718Z,6.03
2024-03-06T07:03:30.809Z,6.13
2024-03-06T07:05:58.759Z,6.01
2024-03-06T07:08:25.938Z,5.82
2024-03-06T07:10:56.319Z,5.85
2024-03-06T07:13:23.597Z,6.02
2024-03-06T07:15:50.694Z,5.91
2024-03-06T07:18:17.895Z,5.96
2024-03-06T07:20:45.177Z,5.86
2024-03-06T07:23:12.605Z,5.80
2024-03-06T07:25:39.693Z,5.94
2024-03-06T07:28:06.977Z,6.08
2024-03-06T07:30:34.092Z,6.14
2024-03-06T07:33:02.049Z,5.92
2024-03-06T07:35:29.260Z,5.90
2024-03-06T07:37:56.431Z,6.01
2024-03-06T07:40:23.907Z,6.06
2024-03-06T07:42:51.022Z,6.04
2024-03-06T07:45:18.113Z,6.14
2024-03-06T07:47:46.559Z,6.09
2024-03-06T07:50:14.030Z,6.16
2024-03-06T07:52:41.169Z,6.08
2024-03-06T07:55:08.589Z,6.09
2024-03-06T07:57:35.628Z,6.19
2024-03-06T08:00:09.699Z,6.23
2024-03-06T08:02:36.719Z,6.25
2024-03-06T08:05:04.112Z,6.27
2024-03-06T08:07:31.592Z,6.39
2024-03-06T08:09:58.577Z,6.28
2024-03-06T08:12:25.666Z,6.29
2024-03-06T08:14:53.012Z,6.46
2024-03-06T08:17:20.215Z,6.58
2024-03-06T08:19:47.483Z,6.62
2024-03-06T08:22:15.217Z,6.72
2024-03-06T08:24:42.368Z,6.87
2024-03-06T08:27:09.482Z,6.99
2024-03-06T08:29:36.580Z,7.03
2024-03-06T08:32:05.160Z,6.95
2024-03-06T08:34:33.232Z,7.04
2024-03-06T08:37:00.274Z,7.09
2024-03-06T08:39:27.297Z,6.99
2024-03-06T08:41:54.375Z,6.93
2024-03-06T08:44:21.721Z,7.09
2024-03-06T08:46:48.727Z,7.15
2024-03-06T08:49:15.827Z,7.12
2024-03-06T08:51:42.845Z,7.08
2024-03-06T08:54:14.631Z,7.29
2024-03-06T08:56:45.146Z,7.56
2024-03-06T08:59:12.574Z,7.67
2024-03-06T09:01:39.692Z,7.69
2024-03-06T09:04:08.631Z,7.79
2024-03-06T09:06:35.653Z,7.69
2024-03-06T09:09:03.556Z,7.71
2024-03-06T09:11:30.671Z,7.87
2024-03-06T09:13:57.770Z,7.73
2024-03-06T09:16:25.671Z,7.83
2024-03-06T09:18:53.778Z,7.98
2024-03-06T09:21:22.396Z,8.04
2024-03-06T09:23:52.702Z,7.97
2024-03-06T09:26:19.871Z,7.90
2024-03-06T09:28:47.029Z,7.95
2024-03-06T09:31:14.808Z,7.94
2024-03-06T09:33:42.051Z,7.69
2024-03-06T09:36:14.473Z,7.68
2024-03-06T09:38:41.857Z,7.86
2024-03-06T09:41:09.942Z,7.85
2024-03-06T09:43:37.331Z,7.86
2024-03-06T09:46:05.367Z,7.93
2024-03-06T09:48:33.227Z,7.82
2024-03-06T09:51:05.680Z,7.77
2024-03-06T09:53:32.788Z,7.72
2024-03-06T09:56:01.601Z,7.71
2024-03-06T09:58:28.950Z,7.57
2024-03-06T10:00:57.774Z,7.50
2024-03-06T10:03:24.874Z,7.63
2024-03-06T10:05:52.044Z,7.58
2024-03-06T10:08:21.296Z,7.66
2024-03-06T10:10:51.825Z,7.65
2024-03-06T10:13:18.837Z,7.78
2024-03-06T10:16:10.110Z,7.82
2024-03-06T10:18:40.077Z,7.75
2024-03-06T10:21:07.284Z,7.78
2024-03-06T10:23:36.101Z,7.76
2024-03-06T10:26:03.324Z,7.65
2024-03-06T10:28:30.408Z,7.64
2024-03-06T10:31:07.176Z,7.67
2024-03-06T10:33:35.462Z,7.80
2024-03-06T10:36:05.237Z,7.81
2024-03-06T10:38:37.192Z,7.82
2024-03-06T10:41:07.828Z,7.88
2024-03-06T10:43:36.472Z,7.91
2024-03-06T10:46:07.820Z,8.01
2024-03-06T10:48:36.256Z,8.10
2024-03-06T10:51:04.961Z,8.10
2024-03-06T10:53:34.254Z,8.11
2024-03-06T10:56:03.252Z,8.27
2024-03-06T10:58:31.036Z,8.44
2024-03-06T11:00:59.485Z,8.36
2024-03-06T11:03:27.500Z,8.53
2024-03-06T11:05:54.626Z,8.58
2024-03-06T11:08:22.900Z,8.63
2024-03-06T11:10:50.338Z,8.61
2024-03-06T11:13:28.266Z,8.79
2024-03-06T11:15:58.856Z,8.86
2024-03-06T11:18:32.544Z,8.91
2024-03-06T11:21:02.846Z,9.02
2024-03-06T11:23:33.677Z,9.02
2024-03-06T11:26:08.066Z,9.05
2024-03-06T11:28:41.500Z,9.24
2024-03-06T11:31:20.197Z,9.27
2024-03-06T11:36:31.714Z,9.44
2024-03-06T11:39:01.554Z,9.48
2024-03-06T11:41:33.541Z,9.45
2024-03-06T11:44:02.101Z,9.50
2024-03-06T11:47:10.553Z,9.61
2024-03-06T11:49:39.480Z,9.67
2024-03-06T11:52:11.858Z,9.65
2024-03-06T11:54:40.081Z,9.76
2024-03-06T11:57:08.097Z,9.76
2024-03-06T11:59:41.195Z,9.80
2024-03-06T12:02:08.759Z,9.69
2024-03-06T12:04:40.058Z,9.66
2024-03-06T12:07:08.362Z,9.69
2024-03-06T12:09:41.106Z,9.73
2024-03-06T12:12:11.302Z,9.70
2024-03-06T12:14:41.302Z,9.67
2024-03-06T12:17:14.838Z,9.73
2024-03-06T12:19:43.927Z,9.76
2024-03-06T12:22:12.091Z,9.82
2024-03-06T12:24:39.188Z,9.80
2024-03-06T12:27:08.555Z,9.85
2024-03-06T12:29:39.378Z,9.94
2024-03-06T12:32:19.085Z,9.89
2024-03-06T12:34:57.371Z,9.92
2024-03-06T12:37:36.139Z,9.97
2024-03-06T12:40:06.104Z,10.07
2024-03-06T12:42:34.057Z,10.12
2024-03-06T12:45:01.347Z,10.08
2024-03-06T12:47:28.676Z,10.08
2024-03-06T12:49:55.858Z,10.08
2024-03-06T12:52:22.952Z,10.04
2024-03-06T12:54:50.915Z,9.99
2024-03-06T12:57:19.169Z,10.00
2024-03-06T12:59:46.488Z,10.06
2024-03-06T13:02:13.788Z,10.09
2024-03-06T13:04:40.851Z,10.11
2024-03-06T13:07:07.965Z,10.14
2024-03-06T13:09:35.174Z,10.19
2024-03-06T13:12:02.704Z,10.30
2024-03-06T13:14:29.817Z,10.23
2024-03-06T13:16:57.378Z,10.26
2024-03-06T13:19:24.528Z,10.25
2024-03-06T13:21:51.936Z,10.25
2024-03-06T13:24:19.062Z,10.28
2024-03-06T13:26:47.168Z,10.24
2024-03-06T13:29:15.016Z,10.35
2024-03-06T13:31:42.086Z,10.37
2024-03-06T13:34:09.221Z,10.41
2024-03-06T13:36:36.532Z,10.32
2024-03-06T13:39:03.652Z,10.49
2024-03-06T13:41:31.218Z,10.49
2024-03-06T13:43:58.493Z,10.41
2024-03-06T13:46:25.572Z,10.38
2024-03-06T13:48:52.718Z,10.48
2024-03-06T13:51:19.745Z,10.61
2024-03-06T13:53:47.372Z,10.63
2024-03-06T13:56:14.511Z,10.74
2024-03-06T13:58:42.302Z,10.92
2024-03-06T14:01:09.360Z,10.96
2024-03-06T14:03:38.931Z,10.89
2024-03-06T14:06:08.497Z,10.90
2024-03-06T14:08:35.624Z,10.87
2024-03-06T14:11:05.356Z,10.88
2024-03-06T14:13:32.492Z,10.89
2024-03-06T14:16:01.713Z,10.94
2024-03-06T14:18:30.059Z,10.82
2024-03-06T14:20:57.351Z,10.71
2024-03-06T14:23:24.572Z,10.70
2024-03-06T14:25:52.012Z,10.73
2024-03-06T14:28:19.065Z,10.73
2024-03-06T14:30:46.613Z,10.86
2024-03-06T14:33:13.863Z,11.03
2024-03-06T14:35:40.978Z,11.03
2024-03-06T14:38:08.095Z,11.04
2024-03-06T14:40:35.414Z,11.08
2024-03-06T14:43:03.328Z,11.06
2024-03-06T14:45:30.468Z,11.10
2024-03-06T14:47:57.639Z,11.06
2024-03-06T14:50:24.815Z,10.99
2024-03-06T14:52:51.943Z,10.94
2024-03-06T14:55:19.070Z,10.95
2024-03-06T14:57:46.173Z,10.96
2024-03-06T15:00:13.919Z,10.98
2024-03-06T15:02:41.485Z,11.06
2024-03-06T15:05:08.848Z,11.02
2024-03-06T15:07:35.955Z,11.16
2024-03-06T15:10:03.083Z,11.18
2024-03-06T15:12:30.164Z,11.17
2024-03-06T15:14:59.443Z,11.10
2024-03-06T15:17:29.568Z,11.08
2024-03-06T15:19:58.250Z,11.02
2024-03-06T15:22:25.876Z,11.02
2024-03-06T15:24:52.932Z,11.01
2024-03-06T15:27:20.005Z,10.94
2024-03-06T15:29:47.209Z,10.91
2024-03-06T15:32:14.453Z,10.95
2024-03-06T15:34:41.630Z,10.98
2024-03-06T15:37:08.657Z,10.94
2024-03-06T15:39:35.984Z,10.98
2024-03-06T15:42:03.145Z,10.96
2024-03-06T15:44:30.274Z,10.96
2024-03-06T15:47:06.603Z,10.96
2024-03-06T15:49:37.725Z,10.90
2024-03-06T15:52:05.200Z,10.89
2024-03-06T15:54:32.558Z,10.85
2024-03-06T15:56:59.760Z,10.82
2024-03-06T15:59:27.011Z,10.78
2024-03-06T16:01:54.247Z,10.79
2024-03-06T16:04:21.402Z,10.80
2024-03-06T16:06:48.772Z,10.80
2024-03-06T16:09:16.360Z,10.79
2024-03-06T16:11:43.912Z,10.71
2024-03-06T16:14:12.186Z,10.70
2024-03-06T16:16:43.379Z,10.56
2024-03-06T16:19:10.766Z,10.47
2024-03-06T16:21:41.187Z,10.42
2024-03-06T16:24:11.063Z,10.35
2024-03-06T16:26:38.777Z,10.32
2024-03-06T16:29:06.070Z,10.22
2024-03-06T16:31:33.304Z,10.20
2024-03-06T16:34:00.564Z,10.21
2024-03-06T16:36:27.722Z,10.17
2024-03-06T16:38:54.926Z,10.16
2024-03-06T16:41:22.158Z,10.12
2024-03-06T16:43:49.290Z,10.08
2024-03-06T16:46:18.480Z,10.00
2024-03-06T16:48:45.643Z,9.77
2024-03-06T16:51:19.334Z,9.67
2024-03-06T16:53:46.645Z,9.52
2024-03-06T16:56:14.148Z,9.47
2024-03-06T16:58:41.718Z,9.38
2024-03-06T17:01:08.832Z,9.38
2024-03-06T17:03:35.943Z,9.38
2024-03-06T17:06:03.114Z,9.24
2024-03-06T17:08:30.188Z,9.25
2024-03-06T17:10:57.287Z,9.19
2024-03-06T17:13:24.421Z,9.10
2024-03-06T17:15:52.363Z,9.25
2024-03-06T17:18:22.448Z,9.41
2024-03-06T17:20:49.732Z,9.32
2024-03-06T17:23:16.867Z,9.30
2024-03-06T17:25:45.268Z,9.42
2024-03-06T17:28:12.367Z,9.40
2024-03-06T17:30:39.429Z,9.39
2024-03-06T17:33:06.697Z,9.44
2024-03-06T17:35:33.942Z,9.37
2024-03-06T17:38:04.270Z,9.33
2024-03-06T17:40:31.744Z,9.28
2024-03-06T17:42:59.025Z,9.16
2024-03-06T17:45:26.285Z,9.19
2024-03-06T17:47:53.813Z,9.15
2024-03-06T17:50:21.568Z,9.10
2024-03-06T17:52:48.793Z,9.08
2024-03-06T17:55:18.279Z,8.92
2024-03-06T17:57:48.117Z,8.81
2024-03-06T18:00:18.199Z,8.84
2024-03-06T18:02:45.862Z,8.77
2024-03-06T18:05:14.366Z,8.78
2024-03-06T18:07:45.864Z,8.81
2024-03-06T18:10:14.354Z,8.70
2024-03-06T18:12:41.513Z,8.69
2024-03-06T18:15:09.246Z,8.69
2024-03-06T18:17:38.660Z,8.66
2024-03-06T18:20:09.322Z,8.55
2024-03-06T18:22:38.681Z,8.53
2024-03-06T18:25:09.527Z,8.54
2024-03-06T18:27:37.007Z,8.45
2024-03-06T18:30:05.365Z,8.44
2024-03-06T18:32:33.027Z,8.39
2024-03-06T18:35:00.325Z,8.41
2024-03-06T18:37:27.602Z,8.25
2024-03-06T18:39:54.755Z,8.23
2024-03-06T18:42:22.583Z,8.20
2024-03-06T18:44:50.602Z,8.10
2024-03-06T18:47:21.054Z,8.06
2024-03-06T18:49:48.276Z,8.06
2024-03-06T18:52:15.557Z,8.10
2024-03-06T18:54:43.028Z,7.99
2024-03-06T18:57:10.243Z,7.95
2024-03-06T18:59:39.081Z,7.93
2024-03-06T19:02:09.238Z,7.98
2024-03-06T19:04:38.304Z,7.94
2024-03-06T19:07:06.052Z,7.90
2024-03-06T19:09:33.152Z,7.87
2024-03-06T19:12:00.888Z,7.74
2024-03-06T19:14:28.722Z,7.70
2024-03-06T19:16:55.837Z,7.70
2024-03-06T19:19:23.773Z,7.60
2024-03-06T19:21:53.225Z,7.60
2024-03-06T19:24:21.746Z,7.48
2024-03-06T19:26:51.399Z,7.49
2024-03-06T19:29:19.696Z,7.47
2024-03-06T19:31:47.579Z,7.48
2024-03-06T19:34:17.637Z,7.47
2024-03-06T19:36:45.162Z,7.50
2024-03-06T19:39:12.249Z,7.57
2024-03-06T19:41:40.740Z,7.44
2024-03-06T19:44:07.960Z,7.27
2024-03-06T19:46:35.325Z,7.33
2024-03-06T19:49:02.445Z,7.29
2024-03-06T19:51:32.250Z,7.22
2024-03-06T19:53:59.517Z,7.15
2024-03-06T19:56:26.714Z,7.28
2024-03-06T19:58:54.216Z,7.21
2024-03-06T20:01:21.953Z,7.19
2024-03-06T20:03:49.113Z,7.27
2024-03-06T20:06:16.844Z,7.11
2024-03-06T20:08:44.046Z,7.06
2024-03-06T20:11:11.761Z,7.10
2024-03-06T20:13:39.083Z,7.09
2024-03-06T20:16:07.712Z,7.11
2024-03-06T20:18:36.484Z,7.08
2024-03-06T20:21:04.133Z,7.13
2024-03-06T20:23:31.181Z,7.03
2024-03-06T20:25:58.661Z,7.04
2024-03-06T20:28:26.194Z,6.97
2024-03-06T20:30:53.864Z,6.91
2024-03-06T20:33:21.317Z,6.81
2024-03-06T20:35:51.420Z,6.76
2024-03-06T20:38:19.988Z,6.61
2024-03-06T20:40:50.201Z,6.49
2024-03-06T20:43:17.394Z,6.65
2024-03-06T20:45:45.304Z,6.51
2024-03-06T20:48:13.500Z,6.38
2024-03-06T20:50:41.764Z,6.28
2024-03-06T20:53:09.059Z,6.33
2024-03-06T20:55:36.397Z,6.24
2024-03-06T20:58:03.578Z,6.39
2024-03-06T21:00:33.540Z,6.54
2024-03-06T21:03:01.183Z,6.57
2024-03-06T21:05:28.364Z,6.54
2024-03-06T21:07:55.588Z,6.53
2024-03-06T21:10:23.201Z,6.34
2024-03-06T21:12:51.621Z,6.21
2024-03-06T21:15:19.187Z,6.13
2024-03-06T21:17:46.517Z,6.12
2024-03-06T21:20:14.190Z,6.09
2024-03-06T21:22:42.910Z,6.18
2024-03-06T21:25:13.064Z,6.30
2024-03-06T21:27:41.028Z,6.34
2024-03-06T21:30:09.594Z,6.12
2024-03-06T21:32:37.855Z,6.17
2024-03-06T21:35:05.671Z,6.07
2024-03-06T21:37:33.929Z,6.15
2024-03-06T21:40:04.085Z,6.14
2024-03-06T21:42:32.230Z,6.11
2024-03-06T21:44:59.469Z,5.97
2024-03-06T21:47:26.657Z,6.10
2024-03-06T21:49:53.893Z,6.09
2024-03-06T21:52:20.979Z,5.92
2024-03-06T21:54:48.098Z,5.89
2024-03-06T21:57:16.878Z,5.86
2024-03-06T21:59:44.281Z,5.87
2024-03-06T22:02:14.215Z,5.95
2024-03-06T22:04:41.507Z,5.80
2024-03-06T22:07:08.672Z,5.63
2024-03-06T22:09:38.557Z,5.73
2024-03-06T22:12:09.437Z,5.61
2024-03-06T22:14:36.714Z,5.56
2024-03-06T22:17:03.891Z,5.66
2024-03-06T22:19:31.452Z,5.46
2024-03-06T22:21:58.831Z,5.58
2024-03-06T22:24:26.355Z,5.57
2024-03-06T22:26:54.624Z,5.63
2024-03-06T22:29:21.839Z,5.60
2024-03-06T22:31:51.847Z,5.64
2024-03-06T22:34:19.032Z,5.59
2024-03-06T22:36:46.117Z,5.45
2024-03-06T22:39:13.337Z,5.49
2024-03-06T22:41:40.761Z,5.42
2024-03-06T22:44:08.001Z,5.46
2024-03-06T22:46:47.332Z,5.44
2024-03-06T22:49:18.796Z,5.42
2024-03-06T22:51:46.349Z,5.20
2024-03-06T22:54:13.631Z,5.24
2024-03-06T22:56:41.155Z,5.14
2024-03-06T22:59:11.104Z,5.19
2024-03-06T23:01:41.399Z,5.08
2024-03-06T23:04:08.847Z,5.17
2024-03-06T23:06:36.671Z,5.11
2024-03-06T23:09:04.967Z,4.91
2024-03-06T23:11:33.058Z,4.93
2024-03-06T23:14:00.374Z,5.00
2024-03-06T23:16:29.152Z,4.81
2024-03-06T23:18:59.074Z,4.76
2024-03-06T23:21:27.858Z,4.75
2024-03-06T23:23:55.123Z,4.87
2024-03-06T23:26:22.557Z,5.03
2024-03-06T23:28:49.978Z,4.87
2024-03-06T23:31:17.556Z,4.91
2024-03-06T23:33:45.371Z,4.95
2024-03-06T23:36:15.304Z,5.04
2024-03-06T23:38:42.610Z,4.93
2024-03-06T23:41:10.993Z,4.94
2024-03-06T23:43:38.196Z,5.01
2024-03-06T23:46:08.564Z,4.87
2024-03-06T23:48:37.734Z,4.76
2024-03-06T23:51:05.430Z,4.81
2024-03-06T23:53:33.293Z,4.81
2024-03-06T23:56:00.408Z,4.92
2024-03-06T23:58:27.801Z,4.80
